createdAt,value
2023-01-08T00:01:18.524Z,7.11
2023-01-08T00:03:50.804Z,7.04
2023-01-08T00:06:21.516Z,7.04
2023-01-08T00:08:48.544Z,6.88
2023-01-08T00:11:15.997Z,6.93
2023-01-08T00:13:43.261Z,7.01
2023-01-08T00:16:17.094Z,7.09
2023-01-08T00:18:46.643Z,7.05
2023-01-08T00:21:14.537Z,7.08
2023-01-08T00:23:41.501Z,7.09
2023-01-08T00:26:10.846Z,7.03
2023-01-08T00:28:38.859Z,7.06
2023-01-08T00:31:12.418Z,7.07
2023-01-08T00:33:41.075Z,7.10
2023-01-08T00:36:15.156Z,7.06
2023-01-08T00:38:43.795Z,7.01
2023-01-08T00:41:13.845Z,7.02
2023-01-08T00:43:40.979Z,7.04
2023-01-08T00:46:09.195Z,7.05
2023-01-08T00:48:39.381Z,7.01
2023-01-08T00:51:09.353Z,7.04
2023-01-08T00:53:38.226Z,7.03
2023-01-08T00:56:09.877Z,7.04
2023-01-08T00:58:37.366Z,7.07
2023-01-08T01:01:11.920Z,7.10
2023-01-08T01:03:38.989Z,7.09
2023-01-08T01:06:09.152Z,7.05
2023-01-08T01:08:36.162Z,7.10
2023-01-08T01:11:24.527Z,7.08
2023-01-08T01:13:52.025Z,7.03
2023-01-08T01:16:19.401Z,6.98
2023-01-08T01:18:46.459Z,7.00
2023-01-08T01:21:29.931Z,7.02
2023-01-08T01:24:00.468Z,6.94
2023-01-08T01:26:28.357Z,6.90
2023-01-08T01:28:58.166Z,6.89
2023-01-08T01:31:29.623Z,6.81
2023-01-08T01:33:57.090Z,6.77
2023-01-08T01:36:25.964Z,6.74
2023-01-08T01:38:56.325Z,6.86
2023-01-08T01:41:38.248Z,6.85
2023-01-08T01:44:40.766Z,6.93
2023-01-08T01:47:34.211Z,7.05
2023-01-08T01:50:12.297Z,7.16
2023-01-08T01:52:51.112Z,7.14
2023-01-08T01:55:18.711Z,7.21
2023-01-08T01:57:53.339Z,7.11
2023-01-08T02:00:22.089Z,7.19
2023-01-08T02:02:51.040Z,7.20
2023-01-08T02:05:18.168Z,7.18
2023-01-08T02:07:58.733Z,7.17
2023-01-08T02:10:55.592Z,7.19
2023-01-08T02:13:31.697Z,7.26
2023-01-08T02:16:12.703Z,7.23
2023-01-08T02:18:50.700Z,7.25
2023-01-08T02:21:46.111Z,7.25
2023-01-08T02:24:34.854Z,7.22
2023-01-08T02:27:08.164Z,7.30
2023-01-08T02:29:35.940Z,7.32
2023-01-08T02:32:03.613Z,7.27
2023-01-08T02:34:32.469Z,7.09
2023-01-08T02:37:01.292Z,7.17
2023-01-08T02:39:34.590Z,7.17
2023-01-08T02:42:07.763Z,7.12
2023-01-08T02:44:45.707Z,7.13
2023-01-08T02:47:45.068Z,7.29
2023-01-08T02:50:38.317Z,7.20
2023-01-08T02:53:18.673Z,7.16
2023-01-08T02:55:57.099Z,7.11
2023-01-08T02:58:29.857Z,7.06
2023-01-08T03:00:58.531Z,7.09
2023-01-08T03:03:28.904Z,6.86
2023-01-08T03:06:05.763Z,7.00
2023-01-08T03:08:39.562Z,6.99
2023-01-08T03:11:16.041Z,7.12
2023-01-08T03:14:02.393Z,7.21
2023-01-08T03:16:35.942Z,7.16
2023-01-08T03:19:15.415Z,7.17
2023-01-08T03:21:46.434Z,7.28
2023-01-08T03:24:29.611Z,7.31
2023-01-08T03:27:04.051Z,7.32
2023-01-08T03:29:34.357Z,7.31
2023-01-08T03:32:09.457Z,7.34
2023-01-08T03:34:42.114Z,7.39
2023-01-08T03:37:13.884Z,7.49
2023-01-08T03:39:51.650Z,7.51
2023-01-08T03:42:21.500Z,7.48
2023-01-08T03:44:48.480Z,7.57
2023-01-08T03:47:16.579Z,7.61
2023-01-08T03:49:45.751Z,7.62
2023-01-08T03:52:29.126Z,7.61
2023-01-08T03:54:56.911Z,7.62
2023-01-08T03:57:24.536Z,7.56
2023-01-08T03:59:51.504Z,7.50
2023-01-08T04:02:18.964Z,7.46
2023-01-08T04:04:46.527Z,7.53
2023-01-08T04:07:14.067Z,7.53
2023-01-08T04:09:41.236Z,7.59
2023-01-08T04:12:08.472Z,7.55
2023-01-08T04:14:35.410Z,7.61
2023-01-08T04:17:02.603Z,7.65
2023-01-08T04:19:29.577Z,7.61
2023-01-08T04:21:56.711Z,7.64
2023-01-08T04:24:23.616Z,7.67
2023-01-08T04:26:50.892Z,7.64
2023-01-08T04:29:17.810Z,7.59
2023-01-08T04:31:45.030Z,7.51
2023-01-08T04:34:11.996Z,7.42
2023-01-08T04:36:39.204Z,7.40
2023-01-08T04:39:07.581Z,7.44
2023-01-08T04:41:34.795Z,7.51
2023-01-08T04:44:01.669Z,7.57
2023-01-08T04:46:29.026Z,7.58
2023-01-08T04:48:56.067Z,7.53
2023-01-08T04:51:23.925Z,7.61
2023-01-08T04:53:50.793Z,7.62
2023-01-08T04:56:18.018Z,7.64
2023-01-08T04:58:45.193Z,7.70
2023-01-08T05:01:27.521Z,7.69
2023-01-08T05:04:04.225Z,7.69
2023-01-08T05:06:33.234Z,7.68
2023-01-08T05:09:00.241Z,7.55
2023-01-08T05:11:27.740Z,7.57
2023-01-08T05:13:55.419Z,7.52
2023-01-08T05:16:23.381Z,7.53
2023-01-08T05:18:50.419Z,7.61
2023-01-08T05:21:17.761Z,7.65
2023-01-08T05:23:50.302Z,7.60
2023-01-08T05:26:19.342Z,7.58
2023-01-08T05:28:47.073Z,7.59
2023-01-08T05:31:15.408Z,7.63
2023-01-08T05:33:42.741Z,7.64
2023-01-08T05:36:12.668Z,7.46
2023-01-08T05:38:40.438Z,7.50
2023-01-08T05:41:08.632Z,7.32
2023-01-08T05:43:36.714Z,7.24
2023-01-08T05:46:05.281Z,7.24
2023-01-08T05:48:35.454Z,7.33
2023-01-08T05:51:03.665Z,7.31
2023-01-08T05:53:32.920Z,7.27
2023-01-08T05:56:09.092Z,7.31
2023-01-08T05:58:37.068Z,7.39
2023-01-08T06:01:16.284Z,7.36
2023-01-08T06:03:43.547Z,7.36
2023-01-08T06:06:12.433Z,7.39
2023-01-08T06:08:39.421Z,7.36
2023-01-08T06:11:09.214Z,7.33
2023-01-08T06:13:37.977Z,7.22
2023-01-08T06:16:05.850Z,7.14
2023-01-08T06:18:32.854Z,7.17
2023-01-08T06:21:01.448Z,7.08
2023-01-08T06:23:28.848Z,6.99
2023-01-08T06:25:58.410Z,7.00
2023-01-08T06:28:26.766Z,7.03
2023-01-08T06:30:53.972Z,6.99
2023-01-08T06:33:21.621Z,6.86
2023-01-08T06:35:49.029Z,6.48
2023-01-08T06:38:19.296Z,6.63
2023-01-08T06:40:48.079Z,6.81
2023-01-08T06:43:15.798Z,6.71
2023-01-08T06:45:43.040Z,6.80
2023-01-08T06:48:10.018Z,6.77
2023-01-08T06:50:37.302Z,6.68
2023-01-08T06:53:04.234Z,6.63
2023-01-08T06:55:31.354Z,6.71
2023-01-08T06:57:59.390Z,6.61
2023-01-08T07:00:27.524Z,6.47
2023-01-08T07:02:55.587Z,6.64
2023-01-08T07:05:23.824Z,6.60
2023-01-08T07:07:50.971Z,6.58
2023-01-08T07:10:20.005Z,6.55
2023-01-08T07:12:48.406Z,6.53
2023-01-08T07:15:16.128Z,6.66
2023-01-08T07:17:43.054Z,6.64
2023-01-08T07:20:11.119Z,6.71
2023-01-08T07:22:38.042Z,6.55
2023-01-08T07:25:05.865Z,6.61
2023-01-08T07:27:32.941Z,6.78
2023-01-08T07:30:00.123Z,6.83
2023-01-08T07:32:27.088Z,6.89
2023-01-08T07:34:54.807Z,6.95
2023-01-08T07:37:21.699Z,6.93
2023-01-08T07:39:48.934Z,7.01
2023-01-08T07:42:15.782Z,7.07
2023-01-08T07:44:42.926Z,7.13
2023-01-08T07:47:09.989Z,7.16
2023-01-08T07:49:37.135Z,7.11
2023-01-08T07:52:04.211Z,7.04
2023-01-08T07:54:31.379Z,7.03
2023-01-08T07:56:58.292Z,7.11
2023-01-08T07:59:25.568Z,7.21
2023-01-08T08:01:52.537Z,7.12
2023-01-08T08:04:20.011Z,7.20
2023-01-08T08:06:46.918Z,7.28
2023-01-08T08:09:14.163Z,7.28
2023-01-08T08:11:41.102Z,7.30
2023-01-08T08:14:09.093Z,7.35
2023-01-08T08:16:36.089Z,7.36
2023-01-08T08:19:03.494Z,7.32
2023-01-08T08:21:31.112Z,7.32
2023-01-08T08:23:58.450Z,7.26
2023-01-08T08:26:25.503Z,7.33
2023-01-08T08:28:52.823Z,7.28
2023-01-08T08:31:19.902Z,7.32
2023-01-08T08:33:47.202Z,7.34
2023-01-08T08:36:14.133Z,7.35
2023-01-08T08:38:41.466Z,7.23
2023-01-08T08:41:08.507Z,7.11
2023-01-08T08:43:35.705Z,7.21
2023-01-08T08:46:02.685Z,7.12
2023-01-08T08:48:29.901Z,7.20
2023-01-08T08:50:56.843Z,7.32
2023-01-08T08:53:25.836Z,7.38
2023-01-08T08:55:54.783Z,7.41
2023-01-08T08:58:22.164Z,7.39
2023-01-08T09:00:49.126Z,7.38
2023-01-08T09:03:16.977Z,7.46
2023-01-08T09:05:44.171Z,7.49
2023-01-08T09:08:13.138Z,7.25
2023-01-08T09:10:42.642Z,7.21
2023-01-08T09:13:11.059Z,7.26
2023-01-08T09:15:38.890Z,7.36
2023-01-08T09:18:06.448Z,7.46
2023-01-08T09:20:33.392Z,7.48
2023-01-08T09:23:01.664Z,7.45
2023-01-08T09:25:29.452Z,7.41
2023-01-08T09:28:09.853Z,7.38
2023-01-08T09:30:36.823Z,7.26
2023-01-08T09:33:05.524Z,7.27
2023-01-08T09:35:34.021Z,7.27
2023-01-08T09:38:01.234Z,7.30
2023-01-08T09:40:56.865Z,7.29
2023-01-08T09:43:28.466Z,7.32
2023-01-08T09:46:00.701Z,7.21
2023-01-08T09:48:36.776Z,7.19
2023-01-08T09:51:04.990Z,7.35
2023-01-08T09:53:33.480Z,7.38
2023-01-08T09:56:14.335Z,7.40
2023-01-08T09:58:58.849Z,7.24
2023-01-08T10:01:36.189Z,7.03
2023-01-08T10:04:14.068Z,7.06
2023-01-08T10:06:47.046Z,7.18
2023-01-08T10:09:15.501Z,6.93
2023-01-08T10:11:47.600Z,6.76
2023-01-08T10:14:48.389Z,6.70
2023-01-08T10:17:29.858Z,6.85
2023-01-08T10:19:57.118Z,7.12
2023-01-08T10:22:31.770Z,7.29
2023-01-08T10:25:25.588Z,7.36
2023-01-08T10:27:59.149Z,7.35
2023-01-08T10:30:40.039Z,7.32
2023-01-08T10:33:25.114Z,7.22
2023-01-08T10:36:03.490Z,7.28
2023-01-08T10:38:40.196Z,7.42
2023-01-08T10:41:13.990Z,7.47
2023-01-08T10:44:03.296Z,7.53
2023-01-08T10:46:50.318Z,7.55
2023-01-08T10:49:32.210Z,7.38
2023-01-08T10:52:00.415Z,7.23
2023-01-08T10:54:40.099Z,7.28
2023-01-08T10:57:30.957Z,7.37
2023-01-08T10:59:58.684Z,7.53
2023-01-08T11:02:39.624Z,7.56
2023-01-08T11:05:11.409Z,7.60
2023-01-08T11:07:40.799Z,7.73
2023-01-08T11:10:23.890Z,7.67
2023-01-08T11:13:01.009Z,7.49
2023-01-08T11:15:41.105Z,7.56
2023-01-08T11:18:18.539Z,7.67
2023-01-08T11:20:47.661Z,7.64
2023-01-08T11:23:25.063Z,7.71
2023-01-08T11:26:07.096Z,7.83
2023-01-08T11:29:08.451Z,7.84
2023-01-08T11:31:46.103Z,7.93
2023-01-08T11:34:31.228Z,7.89
2023-01-08T11:37:20.951Z,7.95
2023-01-08T11:39:49.340Z,7.98
2023-01-08T11:42:58.353Z,7.91
2023-01-08T11:45:50.343Z,7.97
2023-01-08T11:48:49.342Z,8.03
2023-01-08T11:51:56.216Z,7.95
2023-01-08T11:54:38.373Z,7.97
2023-01-08T11:57:28.797Z,7.93
2023-01-08T12:00:14.186Z,7.79
2023-01-08T12:03:03.590Z,7.86
2023-01-08T12:06:28.241Z,7.98
2023-01-08T12:09:15.131Z,7.95
2023-01-08T12:12:06.474Z,8.01
2023-01-08T12:15:02.843Z,8.05
2023-01-08T12:18:23.814Z,8.06
2023-01-08T12:21:02.333Z,8.07
2023-01-08T12:23:50.307Z,8.04
2023-01-08T12:26:46.161Z,8.08
2023-01-08T12:29:31.061Z,8.04
2023-01-08T12:32:17.687Z,7.87
2023-01-08T12:35:04.247Z,7.81
2023-01-08T12:37:43.621Z,7.56
2023-01-08T12:40:25.974Z,7.40
2023-01-08T12:43:00.827Z,7.67
2023-01-08T12:45:46.296Z,7.69
2023-01-08T12:48:24.565Z,7.69
2023-01-08T12:51:31.805Z,7.73
2023-01-08T12:54:28.349Z,7.75
2023-01-08T12:57:25.549Z,7.93
2023-01-08T13:00:20.128Z,7.84
2023-01-08T13:02:57.915Z,7.87
2023-01-08T13:05:25.056Z,7.93
2023-01-08T13:07:58.018Z,7.91
2023-01-08T13:10:39.008Z,8.01
2023-01-08T13:13:28.147Z,8.05
2023-01-08T13:16:28.377Z,7.99
2023-01-08T13:19:00.347Z,8.07
2023-01-08T13:21:43.554Z,8.08
2023-01-08T13:24:39.538Z,8.08
2023-01-08T13:27:33.209Z,8.16
2023-01-08T13:30:02.059Z,8.14
2023-01-08T13:32:47.374Z,8.16
2023-01-08T13:35:20.119Z,8.04
2023-01-08T13:38:06.442Z,8.02
2023-01-08T13:40:47.436Z,7.96
2023-01-08T13:43:21.650Z,7.96
2023-01-08T13:46:19.009Z,8.02
2023-01-08T13:48:55.271Z,7.93
2023-01-08T13:51:40.905Z,7.96
2023-01-08T13:54:14.960Z,7.92
2023-01-08T13:56:45.958Z,7.97
2023-01-08T13:59:38.374Z,7.92
2023-01-08T14:02:26.670Z,7.94
2023-01-08T14:04:55.416Z,7.78
2023-01-08T14:07:24.131Z,7.71
2023-01-08T14:09:52.622Z,7.71
2023-01-08T14:12:24.347Z,7.75
2023-01-08T14:14:58.261Z,7.77
2023-01-08T14:17:32.284Z,7.86
2023-01-08T14:19:59.951Z,7.74
2023-01-08T14:22:33.421Z,7.70
2023-01-08T14:25:07.988Z,7.77
2023-01-08T14:27:35.446Z,7.72
2023-01-08T14:30:02.871Z,7.71
2023-01-08T14:32:31.131Z,7.81
2023-01-08T14:35:01.281Z,7.76
2023-01-08T14:37:28.237Z,7.74
2023-01-08T14:39:58.224Z,7.76
2023-01-08T14:42:47.356Z,7.80
2023-01-08T14:45:32.193Z,7.77
2023-01-08T14:48:11.484Z,7.75
2023-01-08T14:51:04.668Z,7.74
2023-01-08T14:53:33.460Z,7.76
2023-01-08T14:56:01.921Z,7.67
2023-01-08T14:58:37.262Z,7.69
2023-01-08T15:01:27.923Z,7.70
2023-01-08T15:04:07.412Z,7.72
2023-01-08T15:06:34.827Z,7.75
2023-01-08T15:09:02.030Z,7.78
2023-01-08T15:11:32.368Z,7.74
2023-01-08T15:13:59.500Z,7.77
2023-01-08T15:16:39.257Z,7.81
2023-01-08T15:19:10.941Z,7.71
2023-01-08T15:21:38.956Z,7.61
2023-01-08T15:24:07.759Z,7.59
2023-01-08T15:26:35.101Z,7.63
2023-01-08T15:29:06.703Z,7.71
2023-01-08T15:31:48.095Z,7.75
2023-01-08T15:34:19.236Z,7.69
2023-01-08T15:36:49.527Z,7.63
2023-01-08T15:39:16.562Z,7.64
2023-01-08T15:42:02.360Z,7.67
2023-01-08T15:44:29.190Z,7.71
2023-01-08T15:46:56.358Z,7.72
2023-01-08T15:49:23.390Z,7.78
2023-01-08T15:51:52.567Z,7.83
2023-01-08T15:54:25.261Z,7.86
2023-01-08T15:56:52.415Z,7.86
2023-01-08T15:59:19.335Z,7.89
2023-01-08T16:01:46.624Z,7.94
2023-01-08T16:04:13.726Z,7.94
2023-01-08T16:06:41.823Z,7.83
2023-01-08T16:09:08.798Z,7.84
2023-01-08T16:11:36.097Z,7.84
2023-01-08T16:14:03.083Z,7.85
2023-01-08T16:16:30.251Z,7.83
2023-01-08T16:18:59.268Z,7.84
2023-01-08T16:21:26.436Z,7.81
2023-01-08T16:23:53.398Z,7.72
2023-01-08T16:26:20.579Z,7.59
2023-01-08T16:28:48.061Z,7.63
2023-01-08T16:31:16.001Z,7.77
2023-01-08T16:33:43.053Z,7.83
2023-01-08T16:36:10.790Z,7.87
2023-01-08T16:38:37.886Z,7.81
2023-01-08T16:41:06.366Z,7.85
2023-01-08T16:43:41.271Z,7.87
2023-01-08T16:46:18.169Z,7.79
2023-01-08T16:48:46.837Z,7.76
2023-01-08T16:51:15.281Z,7.62
2023-01-08T16:53:42.618Z,7.61
2023-01-08T16:56:10.471Z,7.64
2023-01-08T16:58:37.597Z,7.53
2023-01-08T17:01:11.036Z,7.61
2023-01-08T17:03:38.682Z,7.59
2023-01-08T17:06:12.551Z,7.70
2023-01-08T17:08:41.392Z,7.70
2023-01-08T17:11:13.716Z,7.72
2023-01-08T17:13:41.739Z,7.69
2023-01-08T17:16:13.082Z,7.68
2023-01-08T17:18:40.818Z,7.69
2023-01-08T17:21:10.329Z,7.79
2023-01-08T17:23:38.820Z,7.76
2023-01-08T17:26:10.556Z,7.76
2023-01-08T17:28:38.089Z,7.69
2023-01-08T17:31:12.597Z,7.57
2023-01-08T17:33:40.059Z,7.63
2023-01-08T17:36:16.847Z,7.67
2023-01-08T17:38:44.149Z,7.62
2023-01-08T17:41:31.369Z,7.54
2023-01-08T17:43:58.469Z,7.62
2023-01-08T17:46:25.962Z,7.65
2023-01-08T17:48:52.802Z,7.69
2023-01-08T17:51:20.060Z,7.74
2023-01-08T17:53:47.453Z,7.76
2023-01-08T17:56:14.659Z,7.78
2023-01-08T17:58:41.664Z,7.74
2023-01-08T18:01:12.846Z,7.69
2023-01-08T18:03:40.030Z,7.64
2023-01-08T18:06:10.155Z,7.65
2023-01-08T18:08:38.412Z,7.56
2023-01-08T18:11:08.721Z,7.63
2023-01-08T18:13:36.557Z,7.69
2023-01-08T18:16:13.594Z,7.66
2023-01-08T18:18:41.158Z,7.62
2023-01-08T18:21:08.819Z,7.57
2023-01-08T18:23:35.874Z,7.51
2023-01-08T18:26:08.458Z,7.48
2023-01-08T18:28:36.797Z,7.39
2023-01-08T18:31:07.873Z,7.27
2023-01-08T18:33:36.478Z,7.24
2023-01-08T18:36:09.224Z,7.17
2023-01-08T18:38:38.878Z,7.18
2023-01-08T18:41:07.566Z,7.16
2023-01-08T18:43:36.757Z,7.11
2023-01-08T18:46:07.941Z,7.16
2023-01-08T18:48:35.808Z,7.09
2023-01-08T18:51:05.682Z,7.07
2023-01-08T18:53:33.757Z,6.93
2023-01-08T18:56:04.443Z,6.89
2023-01-08T18:58:31.490Z,6.94
2023-01-08T19:01:05.428Z,6.95
2023-01-08T19:03:33.018Z,7.03
2023-01-08T19:06:00.220Z,7.02
2023-01-08T19:08:27.243Z,6.98
2023-01-08T19:10:54.451Z,6.98
2023-01-08T19:13:21.481Z,6.96
2023-01-08T19:15:48.708Z,7.00
2023-01-08T19:18:15.583Z,6.99
2023-01-08T19:20:46.136Z,6.99
2023-01-08T19:23:13.798Z,6.96
2023-01-08T19:25:41.515Z,6.97
2023-01-08T19:28:09.077Z,6.97
2023-01-08T19:30:37.598Z,6.97
2023-01-08T19:33:04.849Z,6.95
2023-01-08T19:35:32.470Z,7.03
2023-01-08T19:37:59.413Z,7.01
2023-01-08T19:40:26.683Z,7.04
2023-01-08T19:43:11.939Z,7.03
2023-01-08T19:45:39.236Z,6.95
2023-01-08T19:48:06.755Z,7.00
2023-01-08T19:50:38.219Z,6.95
2023-01-08T19:53:05.249Z,6.87
2023-01-08T19:55:35.848Z,6.80
2023-01-08T19:58:02.946Z,6.87
2023-01-08T20:00:37.223Z,6.86
2023-01-08T20:03:05.615Z,6.80
2023-01-08T20:05:32.927Z,6.77
2023-01-08T20:07:59.934Z,6.70
2023-01-08T20:10:27.826Z,6.79
2023-01-08T20:12:54.810Z,6.87
2023-01-08T20:15:21.972Z,6.55
2023-01-08T20:17:48.934Z,6.29
2023-01-08T20:20:16.504Z,6.30
2023-01-08T20:22:43.437Z,6.54
2023-01-08T20:25:10.775Z,6.65
2023-01-08T20:27:37.702Z,6.55
2023-01-08T20:30:06.945Z,6.54
2023-01-08T20:32:34.039Z,6.63
2023-01-08T20:35:01.180Z,6.67
2023-01-08T20:37:29.485Z,6.62
2023-01-08T20:39:56.795Z,6.74
2023-01-08T20:42:33.256Z,6.82
2023-01-08T20:45:01.097Z,6.82
2023-01-08T20:47:27.984Z,6.75
2023-01-08T20:49:55.238Z,6.66
2023-01-08T20:52:22.886Z,6.70
2023-01-08T20:54:50.758Z,6.65
2023-01-08T20:57:17.719Z,6.70
2023-01-08T20:59:45.074Z,6.73
2023-01-08T21:02:12.084Z,6.71
2023-01-08T21:04:41.584Z,6.66
2023-01-08T21:07:08.529Z,6.64
2023-01-08T21:09:35.786Z,6.60
2023-01-08T21:12:03.017Z,6.66
2023-01-08T21:14:30.240Z,6.72
2023-01-08T21:16:57.178Z,6.78
2023-01-08T21:19:24.641Z,6.76
2023-01-08T21:21:51.599Z,6.79
2023-01-08T21:24:20.124Z,6.82
2023-01-08T21:26:47.135Z,6.82
2023-01-08T21:29:16.507Z,6.83
2023-01-08T21:31:43.645Z,6.82
2023-01-08T21:34:11.600Z,6.68
2023-01-08T21:36:39.331Z,6.76
2023-01-08T21:39:07.610Z,6.85
2023-01-08T21:41:53.111Z,6.92
2023-01-08T21:44:43.041Z,6.95
2023-01-08T21:47:14.603Z,6.93
2023-01-08T21:49:42.092Z,6.93
2023-01-08T21:52:27.899Z,6.93
2023-01-08T21:54:57.973Z,6.93
2023-01-08T21:57:27.815Z,6.95
2023-01-08T21:59:56.435Z,6.86
2023-01-08T22:02:24.847Z,6.84
2023-01-08T22:04:56.338Z,6.79
2023-01-08T22:07:24.688Z,6.64
2023-01-08T22:09:52.242Z,6.63
2023-01-08T22:12:19.224Z,6.64
2023-01-08T22:14:46.498Z,6.64
2023-01-08T22:17:13.453Z,6.69
2023-01-08T22:19:41.512Z,6.72
2023-01-08T22:22:10.638Z,6.77
2023-01-08T22:24:39.728Z,6.84
2023-01-08T22:27:08.186Z,6.85
2023-01-08T22:29:37.861Z,6.86
2023-01-08T22:32:05.269Z,6.88
2023-01-08T22:34:34.834Z,6.93
2023-01-08T22:37:02.080Z,6.90
2023-01-08T22:39:29.882Z,6.87
2023-01-08T22:41:57.301Z,6.80
2023-01-08T22:44:24.568Z,6.69
2023-01-08T22:46:51.479Z,6.67
2023-01-08T22:49:18.663Z,6.61
2023-01-08T22:51:45.728Z,6.39
2023-01-08T22:54:14.357Z,6.37
2023-01-08T22:56:41.321Z,6.35
2023-01-08T22:59:08.636Z,6.24
2023-01-08T23:01:36.221Z,6.29
2023-01-08T23:04:04.588Z,6.37
2023-01-08T23:06:32.497Z,6.32
2023-01-08T23:09:00.443Z,6.39
2023-01-08T23:11:28.387Z,6.34
2023-01-08T23:13:56.167Z,6.27
2023-01-08T23:16:25.317Z,6.32
2023-01-08T23:18:54.842Z,6.40
2023-01-08T23:21:25.453Z,6.40
2023-01-08T23:23:53.138Z,6.35
2023-01-08T23:26:25.039Z,6.36
2023-01-08T23:28:54.669Z,6.39
2023-01-08T23:31:26.624Z,6.41
2023-01-08T23:33:54.150Z,6.30
2023-01-08T23:36:22.432Z,6.22
2023-01-08T23:38:53.800Z,6.13
2023-01-08T23:41:26.011Z,6.18
2023-01-08T23:43:54.622Z,6.20
2023-01-08T23:46:21.590Z,6.15
2023-01-08T23:48:51.010Z,6.18
2023-01-08T23:51:18.382Z,6.04
2023-01-08T23:53:45.823Z,6.04
2023-01-08T23:56:13.271Z,5.89
2023-01-08T23:58:40.437Z,6.06
